Time;durP1;ratioP1;P1;durP2;ratioP2;P2;SDS_P1;SDS_P2;PMS_P1;PMS_P2;Temp;Humidity;BMP_temperature;BMP_pressure;BME280_temperature;BME280_humidity;BME280_pressure;Samples;Min_cycle;Max_cycle;Signal;HPM_P1;HPM_P2
2023/05/04 00:02:08;;;;;;;0.85;0.40;;;;;;;;;;5053067;28;20081;-79
2023/05/04 00:04:33;;;;;;;0.85;0.43;;;19.30;77.20;;;;;;5052896;28;20035;-79
2023/05/04 00:06:59;;;;;;;1.05;0.50;;;;;;;;;;5052938;28;20025;-79
2023/05/04 00:09:25;;;;;;;1.58;0.50;;;;;;;;;;5052816;28;20029;-73
2023/05/04 00:11:51;;;;;;;0.55;0.55;;;;;;;;;;5053026;28;20423;-73
2023/05/04 00:14:17;;;;;;;1.25;0.60;;;;;;;;;;5053216;28;20025;-73
2023/05/04 00:16:43;;;;;;;0.93;0.40;;;;;;;;;;5053247;28;20108;-73
2023/05/04 00:19:10;;;;;;;1.85;1.25;;;;;;;;;;5053188;28;20040;-73
2023/05/04 00:21:35;;;;;;;1.42;0.65;;;;;;;;;;5052919;28;20025;-73
2023/05/04 00:24:01;;;;;;;0.85;0.40;;;;;;;;;;5052604;28;20043;-73
2023/05/04 00:26:28;;;;;;;0.80;0.52;;;;;;;;;;5052492;28;20052;-79
2023/05/04 00:28:54;;;;;;;0.30;0.30;;;;;;;;;;5051368;28;20151;-79
2023/05/04 00:31:20;;;;;;;0.50;0.50;;;;;;;;;;5052484;28;20041;-79
2023/05/04 00:33:46;;;;;;;2.83;0.40;;;;;;;;;;5052642;28;20031;-78
2023/05/04 00:36:14;;;;;;;2.35;0.50;;;;;;;;;;5052502;28;20083;-78
2023/05/04 00:38:47;;;;;;;0.70;0.47;;;19.10;77.10;;;;;;5052401;28;20071;-79
2023/05/04 00:41:13;;;;;;;1.85;0.70;;;;;;;;;;5052659;28;20024;-79
2023/05/04 00:43:40;;;;;;;0.85;0.45;;;;;;;;;;5052151;28;20463;-79
2023/05/04 00:46:06;;;;;;;0.63;0.50;;;;;;;;;;5052551;28;20024;-79
2023/05/04 00:48:32;;;;;;;0.38;0.38;;;;;;;;;;5052169;28;20032;-79
2023/05/04 00:50:57;;;;;;;0.70;0.50;;;18.80;54.90;;;;;;5051950;28;20574;-78
2023/05/04 00:53:23;;;;;;;1.10;0.70;;;;;;;;;;5052022;28;20108;-78
2023/05/04 00:55:49;;;;;;;0.77;0.52;;;;;;;;;;5052123;28;20041;-78
2023/05/04 00:58:16;;;;;;;1.60;0.60;;;18.60;77.30;;;;;;5052219;28;20061;-79
2023/05/04 01:00:42;;;;;;;0.47;0.47;;;;;;;;;;5052429;28;20490;-78
2023/05/04 01:03:09;;;;;;;0.98;0.60;;;18.90;77.40;;;;;;5052284;28;20031;-79
2023/05/04 01:05:45;;;;;;;1.10;0.40;;;18.60;77.30;;;;;;5051927;28;20035;-79
2023/05/04 01:08:20;;;;;;;1.35;0.70;;;19.00;54.90;;;;;;5052250;28;20486;-79
2023/05/04 01:10:56;;;;;;;0.52;0.52;;;18.60;50.50;;;;;;5051999;28;20446;-78
2023/05/04 01:13:24;;;;;;;1.02;0.55;;;18.90;77.50;;;;;;5051887;28;20076;-78
2023/05/04 01:15:51;;;;;;;1.45;1.00;;;18.70;73.40;;;;;;5051901;28;20017;-78
2023/05/04 01:18:16;;;;;;;2.05;0.50;;;18.80;77.40;;;;;;5052016;28;20071;-78
2023/05/04 01:20:42;;;;;;;0.68;0.68;;;18.70;77.60;;;;;;5051839;28;20033;-77
2023/05/04 01:23:09;;;;;;;0.85;0.68;;;18.50;77.30;;;;;;5051938;28;20037;-72
2023/05/04 01:25:45;;;;;;;1.23;0.90;;;18.80;77.80;;;;;;5051726;28;20108;-72
2023/05/04 01:28:17;;;;;;;1.08;0.65;;;18.80;77.60;;;;;;5051838;28;20118;-74
2023/05/04 01:30:47;;;;;;;3.45;0.70;;;18.20;77.30;;;;;;5051549;28;20037;-72
2023/05/04 01:33:13;;;;;;;1.02;0.70;;;18.70;77.50;;;;;;5052042;28;20021;-72
2023/05/04 01:35:39;;;;;;;0.80;0.80;;;18.70;77.40;;;;;;5051633;28;20430;-72
2023/05/04 01:38:05;;;;;;;1.23;0.73;;;18.10;77.20;;;;;;5051718;28;20022;-72
2023/05/04 01:40:30;;;;;;;0.70;0.70;;;18.30;77.30;;;;;;5051652;28;20559;-72
2023/05/04 01:42:56;;;;;;;1.13;0.57;;;18.70;77.50;;;;;;5051623;28;20029;-72
2023/05/04 01:45:21;;;;;;;0.55;0.52;;;18.50;65.60;;;;;;5051505;28;20083;-72
2023/05/04 01:47:47;;;;;;;1.05;0.60;;;;;;;;;;5051587;28;20512;-72
2023/05/04 01:50:14;;;;;;;0.68;0.60;;;;;;;;;;5051531;28;20060;-72
2023/05/04 01:52:40;;;;;;;1.15;0.50;;;;;;;;;;5051591;28;20037;-73
2023/05/04 01:55:06;;;;;;;1.90;0.60;;;;;;;;;;5051307;28;20503;-72
2023/05/04 01:57:32;;;;;;;0.55;0.55;;;;;;;;;;5051560;28;20414;-72
2023/05/04 01:59:58;;;;;;;0.50;0.40;;;;;;;;;;5051490;28;20083;-72
2023/05/04 02:02:24;;;;;;;0.77;0.55;;;;;;;;;;5051545;28;20065;-72
2023/05/04 02:04:50;;;;;;;1.27;0.68;;;;;;;;;;5051667;28;20032;-73
2023/05/04 02:07:16;;;;;;;1.35;0.52;;;;;;;;;;5051377;28;20090;-72
2023/05/04 02:09:42;;;;;;;1.17;0.63;;;18.30;76.70;;;;;;5051345;28;20108;-73
2023/05/04 02:12:08;;;;;;;0.70;0.60;;;;;;;;;;5051087;28;20432;-72
2023/05/04 02:14:34;;;;;;;1.25;0.50;;;;;;;;;;5051347;28;20075;-73
2023/05/04 02:17:00;;;;;;;0.50;0.30;;;;;;;;;;5051341;28;20029;-79
2023/05/04 02:19:26;;;;;;;1.15;0.68;;;;;;;;;;5054423;28;20025;-72
2023/05/04 02:21:52;;;;;;;0.73;0.50;;;;;;;;;;5054827;28;20072;-72
2023/05/04 02:24:18;;;;;;;0.70;0.40;;;;;;;;;;5054857;28;20107;-71
2023/05/04 02:26:44;;;;;;;0.73;0.40;;;;;;;;;;5054800;28;20403;-72
2023/05/04 02:29:10;;;;;;;1.40;0.63;;;;;;;;;;5054731;28;20028;-72
2023/05/04 02:31:35;;;;;;;0.70;0.70;;;18.50;73.00;;;;;;5054912;28;20447;-72
2023/05/04 02:34:01;;;;;;;2.05;0.60;;;18.40;70.10;;;;;;5054927;28;20092;-72
2023/05/04 02:36:27;;;;;;;0.60;0.50;;;18.40;63.60;;;;;;5054958;28;20387;-72
2023/05/04 02:38:54;;;;;;;0.85;0.57;;;18.20;58.00;;;;;;5054595;28;20049;-72
2023/05/04 02:41:21;;;;;;;0.63;0.45;;;18.40;78.00;;;;;;5054839;28;20118;-72
2023/05/04 02:43:47;;;;;;;0.88;0.57;;;17.70;77.60;;;;;;5054803;28;20387;-72
2023/05/04 02:46:13;;;;;;;0.40;0.40;;;18.30;77.90;;;;;;5054438;28;20021;-72
2023/05/04 02:48:38;;;;;;;0.40;0.40;;;18.30;77.90;;;;;;5054410;28;20032;-72
2023/05/04 02:51:04;;;;;;;0.68;0.52;;;18.30;78.10;;;;;;5054221;28;20037;-73
2023/05/04 02:53:30;;;;;;;0.90;0.70;;;18.10;77.90;;;;;;5054199;28;20037;-73
2023/05/04 02:55:56;;;;;;;1.15;0.70;;;;;;;;;;5054400;28;20387;-78
2023/05/04 02:58:22;;;;;;;1.40;0.73;;;;;;;;;;5054264;28;20071;-77
2023/05/04 03:00:53;;;;;;;0.80;0.80;;;16.70;45.80;;;;;;5054386;28;20044;-78
2023/05/04 03:03:18;;;;;;;1.05;0.80;;;18.20;78.10;;;;;;5054141;28;20028;-78
2023/05/04 03:05:44;;;;;;;1.13;0.80;;;18.30;78.10;;;;;;5054120;28;20033;-78
2023/05/04 03:08:10;;;;;;;0.88;0.63;;;18.20;77.80;;;;;;5054044;28;20027;-78
2023/05/04 03:10:36;;;;;;;0.90;0.73;;;;;;;;;;5053986;28;20037;-78
2023/05/04 03:13:04;;;;;;;0.70;0.65;;;;;;;;;;5053992;28;20033;-73
2023/05/04 03:15:31;;;;;;;1.38;0.65;;;18.40;49.20;;;;;;5053987;28;20107;-72
2023/05/04 03:17:57;;;;;;;2.40;1.02;;;18.30;78.00;;;;;;5054150;28;20025;-72
2023/05/04 03:20:22;;;;;;;2.85;0.88;;;18.00;77.90;;;;;;5053825;28;20387;-72
2023/05/04 03:22:48;;;;;;;0.90;0.80;;;18.20;78.00;;;;;;5052530;28;20471;-72
2023/05/04 03:25:14;;;;;;;2.38;0.82;;;17.90;71.30;;;;;;5053731;28;20029;-72
2023/05/04 03:27:40;;;;;;;1.50;0.80;;;;;;;;;;5053636;28;20467;-72
2023/05/04 03:30:06;;;;;;;1.80;0.80;;;18.00;45.50;;;;;;5053550;28;20079;-72
2023/05/04 03:32:32;;;;;;;0.98;0.80;;;18.20;77.70;;;;;;5053666;28;20017;-72
2023/05/04 03:34:58;;;;;;;0.70;0.65;;;17.70;77.50;;;;;;5053832;28;20483;-73
2023/05/04 03:37:24;;;;;;;1.23;0.80;;;;;;;;;;5053921;28;20021;-73
2023/05/04 03:39:50;;;;;;;0.90;0.70;;;;;;;;;;5054193;28;20383;-72
2023/05/04 03:42:15;;;;;;;1.48;0.70;;;18.00;56.60;;;;;;5053404;28;20055;-72
2023/05/04 03:44:41;;;;;;;1.33;0.85;;;;;;;;;;5053362;28;20475;-72
2023/05/04 03:47:07;;;;;;;1.05;0.70;;;;;;;;;;5053277;28;20040;-72
2023/05/04 03:49:33;;;;;;;0.90;0.70;;;17.90;45.40;;;;;;5053278;28;20073;-78
2023/05/04 03:51:59;;;;;;;0.60;0.60;;;;;;;;;;5053239;28;20037;-78
2023/05/04 03:54:25;;;;;;;0.95;0.60;;;;;;;;;;5053125;28;20040;-77
2023/05/04 03:56:52;;;;;;;1.05;0.80;;;;;;;;;;5053468;28;20098;-78
2023/05/04 03:59:17;;;;;;;0.70;0.70;;;18.20;45.30;;;;;;5051893;28;20137;-77
2023/05/04 04:01:43;;;;;;;1.92;0.90;;;17.70;78.20;;;;;;5052963;28;20104;-77
2023/05/04 04:04:09;;;;;;;0.40;0.40;;;;;;;;;;5053082;28;20470;-78
2023/05/04 04:06:35;;;;;;;0.80;0.70;;;17.90;78.20;;;;;;5053030;28;20032;-78
2023/05/04 04:09:00;;;;;;;0.90;0.73;;;17.90;78.30;;;;;;5052933;28;20105;-72
2023/05/04 04:11:26;;;;;;;0.82;0.77;;;17.80;78.00;;;;;;5052891;28;20430;-72
2023/05/04 04:13:52;;;;;;;1.38;0.80;;;17.90;71.50;;;;;;5052610;28;20032;-72
2023/05/04 04:16:20;;;;;;;0.73;0.70;;;;;;;;;;5052727;28;20036;-72
2023/05/04 04:18:46;;;;;;;1.20;0.70;;;;;;;;;;5052620;28;20029;-73
2023/05/04 04:21:12;;;;;;;1.38;0.52;;;17.70;46.50;;;;;;5052919;28;20029;-72
2023/05/04 04:23:38;;;;;;;1.20;0.60;;;;;;;;;;5052575;28;20036;-73
2023/05/04 04:26:05;;;;;;;1.40;0.85;;;;;;;;;;5052642;28;20037;-73
2023/05/04 04:28:32;;;;;;;1.10;1.00;;;17.80;73.90;;;;;;5052587;28;20082;-73
2023/05/04 04:30:58;;;;;;;0.68;0.65;;;;;;;;;;5052571;28;20119;-73
2023/05/04 04:33:24;;;;;;;1.70;0.90;;;17.40;77.60;;;;;;5052428;28;20035;-73
2023/05/04 04:35:50;;;;;;;1.42;0.82;;;17.80;68.20;;;;;;5052315;28;20025;-73
2023/05/04 04:38:16;;;;;;;0.80;0.80;;;17.90;71.30;;;;;;5052402;28;20021;-73
2023/05/04 04:40:42;;;;;;;0.85;0.60;;;;;;;;;;5051865;28;20036;-73
2023/05/04 04:43:08;;;;;;;2.33;1.00;;;17.70;55.00;;;;;;5052276;28;20025;-73
2023/05/04 04:45:34;;;;;;;1.35;0.90;;;17.70;45.70;;;;;;5052268;28;20029;-73
2023/05/04 04:48:00;;;;;;;1.35;1.20;;;17.70;74.60;;;;;;5052258;28;20048;-73
2023/05/04 04:50:27;;;;;;;1.80;1.20;;;;;;;;;;5052287;28;20033;-73
2023/05/04 04:52:53;;;;;;;1.38;1.10;;;;;;;;;;5052058;28;20036;-73
2023/05/04 04:55:19;;;;;;;1.55;1.45;;;;;;;;;;5052023;28;20049;-73
2023/05/04 04:57:45;;;;;;;1.50;1.40;;;;;;;;;;5051999;28;20033;-73
2023/05/04 05:00:15;;;;;;;1.90;1.80;;;;;;;;;;5052069;28;20033;-73
2023/05/04 05:02:41;;;;;;;1.90;1.80;;;17.80;78.90;;;;;;5052124;28;20025;-73
2023/05/04 05:05:07;;;;;;;2.42;2.30;;;;;;;;;;5052088;28;20017;-73
2023/05/04 05:07:33;;;;;;;2.45;2.35;;;;;;;;;;5051923;28;20055;-73
2023/05/04 05:09:59;;;;;;;2.88;2.63;;;17.60;79.20;;;;;;5051996;28;20098;-73
2023/05/04 05:12:25;;;;;;;3.95;2.97;;;17.80;79.60;;;;;;5051782;28;20041;-73
2023/05/04 05:14:51;;;;;;;3.10;2.90;;;17.60;79.50;;;;;;5051804;28;20475;-73
2023/05/04 05:17:18;;;;;;;3.42;3.22;;;17.80;79.40;;;;;;5051887;28;20048;-74
2023/05/04 05:19:44;;;;;;;4.00;3.70;;;;;;;;;;5051822;28;20029;-74
2023/05/04 05:22:10;;;;;;;4.30;4.00;;;;;;;;;;5050666;28;20525;-79
2023/05/04 05:24:36;;;;;;;4.30;4.00;;;;;;;;;;5051963;28;20037;-79
2023/05/04 05:27:02;;;;;;;4.38;4.10;;;17.50;60.60;;;;;;5051701;28;20032;-79
2023/05/04 05:29:28;;;;;;;4.00;3.72;;;;;;;;;;5051794;28;20033;-82
2023/05/04 05:31:53;;;;;;;4.07;3.88;;;;;;;;;;5051660;28;20067;-81
2023/05/04 05:34:19;;;;;;;5.35;4.40;;;;;;;;;;5051817;28;20021;-83
2023/05/04 05:36:47;;;;;;;4.80;4.40;;;;;;;;;;5051676;28;20108;-80
2023/05/04 05:39:12;;;;;;;3.95;3.75;;;17.40;72.90;;;;;;5051672;28;20024;-77
2023/05/04 05:41:38;;;;;;;3.88;3.65;;;17.20;65.80;;;;;;5052049;28;20029;-84
2023/05/04 05:44:04;;;;;;;4.13;3.83;;;17.50;58.30;;;;;;5051760;28;20025;-79
2023/05/04 05:46:29;;;;;;;3.92;3.72;;;17.30;61.30;;;;;;5051780;28;20025;-79
2023/05/04 05:48:55;;;;;;;4.10;3.80;;;;;;;;;;5051769;28;20029;-79
2023/05/04 05:51:21;;;;;;;4.07;3.88;;;;;;;;;;5051740;28;20047;-79
2023/05/04 05:53:47;;;;;;;3.70;3.50;;;17.70;79.30;;;;;;5053853;28;20535;-79
2023/05/04 05:56:13;;;;;;;3.70;3.47;;;17.50;78.90;;;;;;5055375;28;20086;-79
2023/05/04 05:58:39;;;;;;;3.80;3.60;;;;;;;;;;5055413;28;20379;-72
2023/05/04 06:01:06;;;;;;;4.28;3.80;;;;;;;;;;5055307;28;20055;-72
2023/05/04 06:03:32;;;;;;;3.75;3.47;;;17.00;69.40;;;;;;5055559;28;20032;-72
2023/05/04 06:05:58;;;;;;;3.40;3.15;;;17.40;66.70;;;;;;5055411;28;20078;-72
2023/05/04 06:08:24;;;;;;;4.57;2.92;;;17.60;79.60;;;;;;5055452;28;20029;-72
2023/05/04 06:10:50;;;;;;;3.03;2.80;;;;;;;;;;5053883;28;20360;-72
2023/05/04 06:13:16;;;;;;;2.75;2.55;;;17.40;63.80;;;;;;5054949;28;20082;-72
2023/05/04 06:15:42;;;;;;;2.25;2.08;;;;;;;;;;5055050;28;20214;-72
2023/05/04 06:18:08;;;;;;;4.60;2.08;;;;;;;;;;5055109;28;20063;-79
2023/05/04 06:20:34;;;;;;;2.00;1.90;;;;;;;;;;5054941;28;20033;-78
2023/05/04 06:23:00;;;;;;;1.98;1.88;;;;;;;;;;5054917;28;20035;-79
2023/05/04 06:25:26;;;;;;;2.08;1.88;;;;;;;;;;5054858;28;20027;-79
2023/05/04 06:27:51;;;;;;;3.45;2.28;;;;;;;;;;5055065;28;20033;-79
2023/05/04 06:30:17;;;;;;;1.75;1.60;;;;;;;;;;5054645;28;20116;-77
2023/05/04 06:32:43;;;;;;;2.28;1.70;;;;;;;;;;5054794;28;20035;-77
2023/05/04 06:35:10;;;;;;;2.10;1.63;;;;;;;;;;5055139;28;20116;-85
2023/05/04 06:37:36;;;;;;;2.75;1.30;;;17.60;66.70;;;;;;5054689;28;20075;-74
2023/05/04 06:40:03;;;;;;;1.80;1.45;;;;;;;;;;5054641;28;20467;-74
2023/05/04 06:42:30;;;;;;;2.55;1.25;;;;;;;;;;5054541;28;20033;-75
2023/05/04 06:44:57;;;;;;;2.05;1.25;;;17.30;66.90;;;;;;5054452;28;20021;-76
2023/05/04 06:47:22;;;;;;;1.55;1.40;;;17.20;79.20;;;;;;5054487;28;20025;-75
2023/05/04 06:49:48;;;;;;;2.97;1.10;;;17.40;79.20;;;;;;5054433;28;20499;-74
2023/05/04 06:52:14;;;;;;;2.92;1.40;;;17.40;70.30;;;;;;5054264;28;20085;-74
2023/05/04 06:54:40;;;;;;;2.35;1.23;;;;;;;;;;5054314;28;20037;-72
2023/05/04 06:57:06;;;;;;;2.88;1.20;;;;;;;;;;5054222;28;20474;-72
2023/05/04 06:59:32;;;;;;;1.38;1.20;;;;;;;;;;5054224;28;20033;-74
2023/05/04 07:01:58;;;;;;;1.60;1.00;;;;;;;;;;5054070;28;20032;-72
2023/05/04 07:04:24;;;;;;;2.05;1.25;;;;;;;;;;5053716;28;20017;-72
2023/05/04 07:06:50;;;;;;;0.80;0.80;;;17.70;51.90;;;;;;5053971;28;20033;-72
2023/05/04 07:09:18;;;;;;;1.40;1.20;;;18.20;47.40;;;;;;5053866;28;20017;-71
2023/05/04 07:11:44;;;;;;;2.05;0.80;;;;;;;;;;5053905;28;20043;-77
2023/05/04 07:14:10;;;;;;;1.63;1.20;;;;;;;;;;5053845;28;20024;-77
2023/05/04 07:16:36;;;;;;;1.67;0.75;;;17.70;78.30;;;;;;5054011;28;20040;-78
2023/05/04 07:19:06;;;;;;;1.10;0.88;;;17.90;78.40;;;;;;5054027;28;20021;-77
2023/05/04 07:21:32;;;;;;;1.50;0.80;;;18.10;62.10;;;;;;5053981;28;20103;-76
2023/05/04 07:23:58;;;;;;;1.10;0.85;;;18.10;77.90;;;;;;5053993;28;20021;-76
2023/05/04 07:26:24;;;;;;;2.60;0.90;;;18.10;78.10;;;;;;5053803;28;20017;-77
2023/05/04 07:28:50;;;;;;;1.20;0.80;;;18.10;78.10;;;;;;5053625;28;20105;-76
2023/05/04 07:31:16;;;;;;;1.52;1.13;;;18.10;78.10;;;;;;5053726;28;20124;-73
2023/05/04 07:33:42;;;;;;;2.80;0.70;;;18.00;78.20;;;;;;5053596;28;20130;-72
2023/05/04 07:36:08;;;;;;;1.52;0.90;;;18.20;61.50;;;;;;5053407;28;20021;-73
2023/05/04 07:38:34;;;;;;;1.98;1.25;;;;;;;;;;5052111;28;20028;-73
2023/05/04 07:41:00;;;;;;;2.15;1.10;;;;;;;;;;5053434;28;20077;-72
2023/05/04 07:43:26;;;;;;;2.03;0.52;;;;;;;;;;5053257;28;20036;-74
2023/05/04 07:45:52;;;;;;;1.40;0.73;;;18.00;47.40;;;;;;5053231;28;20055;-73
2023/05/04 07:48:18;;;;;;;2.72;0.80;;;;;;;;;;5053321;28;20479;-79
2023/05/04 07:50:45;;;;;;;0.93;0.70;;;;;;;;;;5054717;28;20048;-76
2023/05/04 07:53:11;;;;;;;3.40;1.20;;;17.80;79.50;;;;;;5052869;28;20107;-77
2023/05/04 07:55:37;;;;;;;1.27;0.82;;;17.90;74.10;;;;;;5053126;28;20033;-80
2023/05/04 07:58:02;;;;;;;2.45;0.88;;;17.90;79.70;;;;;;5053220;28;20083;-76
2023/05/04 08:00:29;;;;;;;1.00;0.88;;;;;;;;;;5052924;28;20040;-78
2023/05/04 08:02:54;;;;;;;1.63;0.80;;;18.00;79.90;;;;;;5052988;28;20058;-78
2023/05/04 08:05:20;;;;;;;1.23;0.88;;;17.90;57.70;;;;;;5052897;28;20460;-77
2023/05/04 08:07:46;;;;;;;0.80;0.70;;;;;;;;;;5052826;28;20124;-77
2023/05/04 08:10:12;;;;;;;0.98;0.90;;;;;;;;;;5052733;28;20036;-77
2023/05/04 08:12:39;;;;;;;1.15;0.80;;;18.00;48.70;;;;;;5052519;28;20107;-77
2023/05/04 08:15:06;;;;;;;4.10;0.90;;;17.60;80.40;;;;;;5052769;28;20032;-78
2023/05/04 08:17:33;;;;;;;1.55;1.00;;;;;;;;;;5052582;28;20065;-77
2023/05/04 08:20:00;;;;;;;1.23;0.80;;;17.80;80.90;;;;;;5053336;28;20025;-77
2023/05/04 08:22:26;;;;;;;2.90;0.60;;;17.60;59.00;;;;;;5053138;28;20025;-78
2023/05/04 08:24:52;;;;;;;4.25;0.75;;;;;;;;;;5052957;28;20551;-74
2023/05/04 08:27:18;;;;;;;1.50;0.80;;;;;;;;;;5052979;28;20029;-78
2023/05/04 08:29:44;;;;;;;1.58;0.95;;;;;;;;;;5052744;28;20056;-78
2023/05/04 08:32:10;;;;;;;1.60;0.70;;;;;;;;;;5052692;28;20115;-77
2023/05/04 08:34:36;;;;;;;0.98;0.63;;;;;;;;;;5052892;28;20434;-78
2023/05/04 08:37:02;;;;;;;1.02;0.77;;;;;;;;;;5052859;28;20124;-80
2023/05/04 08:39:29;;;;;;;1.38;0.88;;;;;;;;;;5052930;28;20068;-79
2023/05/04 08:41:55;;;;;;;3.42;1.02;;;18.20;69.60;;;;;;5052998;28;20541;-79
2023/05/04 08:44:21;;;;;;;1.05;0.75;;;18.30;81.40;;;;;;5052951;28;20029;-79
2023/05/04 08:46:52;;;;;;;1.65;0.88;;;18.20;81.50;;;;;;5053175;28;20515;-78
2023/05/04 08:49:22;;;;;;;3.08;1.08;;;18.20;49.90;;;;;;5052731;28;20479;-78
2023/05/04 08:51:51;;;;;;;0.68;0.60;;;18.20;49.80;;;;;;5052437;28;20442;-77
2023/05/04 08:54:17;;;;;;;0.82;0.70;;;18.20;81.40;;;;;;5052076;28;20479;-78
2023/05/04 08:56:45;;;;;;;1.00;0.90;;;18.50;81.80;;;;;;5052083;28;20079;-78
2023/05/04 08:59:20;;;;;;;1.00;0.73;;;18.40;81.40;;;;;;5052056;28;20017;-77
2023/05/04 09:01:53;;;;;;;1.48;0.98;;;18.30;47.80;;;;;;5052194;28;20036;-78
2023/05/04 09:04:19;;;;;;;1.33;0.85;;;18.50;81.40;;;;;;5052188;28;20108;-78
2023/05/04 09:06:46;;;;;;;1.77;0.80;;;18.00;80.90;;;;;;5051905;28;20056;-78
2023/05/04 09:09:12;;;;;;;1.80;1.35;;;18.60;51.30;;;;;;5052014;28;20025;-78
2023/05/04 09:11:38;;;;;;;3.92;0.80;;;18.10;76.30;;;;;;5052084;28;20449;-77
2023/05/04 09:14:04;;;;;;;0.85;0.70;;;;;;;;;;5052024;28;20045;-77
2023/05/04 09:16:36;;;;;;;0.77;0.77;;;18.60;64.20;;;;;;5051750;28;20072;-77
2023/05/04 09:19:03;;;;;;;0.73;0.70;;;18.60;70.60;;;;;;5052047;28;20017;-77
2023/05/04 09:21:30;;;;;;;1.45;0.95;;;19.00;81.00;;;;;;5051933;28;20136;-73
2023/05/04 09:23:57;;;;;;;11.07;1.10;;;18.90;78.70;;;;;;5051820;28;20029;-73
2023/05/04 09:26:32;;;;;;;0.88;0.88;;;18.90;80.60;;;;;;5051802;28;20025;-74
2023/05/04 09:29:12;;;;;;;2.13;0.90;;;18.60;48.40;;;;;;5054632;28;20029;-74
2023/05/04 09:31:56;;;;;;;0.95;0.68;;;19.00;57.90;;;;;;5056175;28;20033;-73
2023/05/04 09:34:22;;;;;;;2.17;0.80;;;;;;;;;;5055898;28;20024;-74
2023/05/04 09:37:01;;;;;;;0.80;0.68;;;19.20;47.20;;;;;;5055930;28;20040;-73
2023/05/04 09:39:27;;;;;;;1.00;0.77;;;19.50;79.90;;;;;;5056261;28;20029;-74
2023/05/04 09:41:53;;;;;;;0.88;0.75;;;19.30;80.40;;;;;;5055981;28;20487;-73
2023/05/04 09:44:23;;;;;;;1.40;1.30;;;19.50;80.20;;;;;;5055943;28;20019;-73
2023/05/04 09:46:56;;;;;;;1.35;1.00;;;19.40;80.00;;;;;;5055565;28;20043;-73
2023/05/04 09:49:34;;;;;;;0.90;0.90;;;19.90;47.10;;;;;;5056133;28;20024;-73
2023/05/04 09:52:01;;;;;;;0.93;0.90;;;20.00;50.10;;;;;;5055377;28;20041;-73
2023/05/04 09:54:33;;;;;;;1.40;1.02;;;19.60;79.80;;;;;;5055261;28;20047;-73
2023/05/04 09:57:13;;;;;;;0.95;0.70;;;19.70;46.90;;;;;;5055431;28;20108;-78
2023/05/04 09:59:39;;;;;;;1.33;0.82;;;19.80;58.90;;;;;;5055510;28;20025;-74
2023/05/04 10:02:05;;;;;;;1.02;0.90;;;20.10;80.00;;;;;;5055361;28;20075;-73
2023/05/04 10:04:38;;;;;;;2.67;0.98;;;19.90;80.00;;;;;;5055447;28;20564;-73
2023/05/04 10:07:05;;;;;;;1.38;0.75;;;19.80;66.00;;;;;;5055273;28;20476;-73
2023/05/04 10:09:32;;;;;;;1.10;1.00;;;20.30;80.30;;;;;;5055197;28;20021;-73
2023/05/04 10:11:59;;;;;;;0.88;0.85;;;20.10;48.50;;;;;;5055258;28;20373;-73
2023/05/04 10:14:26;;;;;;;0.75;0.73;;;20.10;79.90;;;;;;5055192;28;20018;-74
2023/05/04 10:17:13;;;;;;;1.02;0.93;;;20.20;47.20;;;;;;5055111;28;20036;-77
2023/05/04 10:20:04;;;;;;;1.48;1.38;;;20.00;79.70;;;;;;5055098;28;20033;-78
2023/05/04 10:22:55;;;;;;;1.30;1.20;;;20.20;68.30;;;;;;5055016;28;20040;-75
2023/05/04 10:26:03;;;;;;;1.45;0.88;;;20.50;80.10;;;;;;5055039;28;20056;-78
2023/05/04 10:28:46;;;;;;;2.10;1.00;;;20.30;80.00;;;;;;5044547;28;20060;-77
2023/05/04 10:31:12;;;;;;;2.53;1.50;;;;;;;;;;5054675;28;20129;-77
2023/05/04 10:33:41;;;;;;;4.03;1.65;;;20.70;48.50;;;;;;5055103;28;20056;-76
2023/05/04 10:36:08;;;;;;;3.83;1.70;;;;;;;;;;5054694;28;20029;-79
2023/05/04 10:38:34;;;;;;;2.10;1.90;;;20.90;55.30;;;;;;5052715;28;20086;-75
2023/05/04 10:41:00;;;;;;;2.03;1.80;;;;;;;;;;5053242;28;20494;-75
2023/05/04 10:43:31;;;;;;;2.95;1.83;;;21.20;69.20;;;;;;5054830;28;20510;-75
2023/05/04 10:45:57;;;;;;;3.00;0.90;;;21.20;79.60;;;;;;5054784;28;20020;-75
2023/05/04 10:48:34;;;;;;;2.78;1.50;;;20.80;49.00;;;;;;5054421;28;20029;-75
2023/05/04 10:51:00;;;;;;;2.33;1.40;;;21.00;63.10;;;;;;5054714;28;20102;-75
2023/05/04 10:53:32;;;;;;;3.70;1.42;;;21.60;60.40;;;;;;5054538;28;20077;-74
2023/05/04 10:55:58;;;;;;;3.40;1.05;;;21.40;69.00;;;;;;5054701;28;20017;-73
2023/05/04 10:58:28;;;;;;;1.50;1.30;;;21.00;74.70;;;;;;5054541;28;20039;-73
2023/05/04 11:00:54;;;;;;;2.50;1.40;;;21.80;79.30;;;;;;5054720;28;20064;-76
2023/05/04 11:03:21;;;;;;;0.73;0.73;;;21.70;79.30;;;;;;5054689;28;20021;-75
2023/05/04 11:05:54;;;;;;;2.25;1.33;;;21.60;79.10;;;;;;5054683;28;20031;-76
2023/05/04 11:08:24;;;;;;;1.70;1.20;;;21.40;78.60;;;;;;5054786;28;20045;-76
2023/05/04 11:11:00;;;;;;;;;;;21.70;47.00;;;;;;5055210;28;20055;-73
2023/05/04 11:13:28;;;;;;;3.20;1.77;;;21.90;70.20;;;;;;5054342;28;19915;-73
2023/05/04 11:15:54;;;;;;;2.35;1.38;;;22.40;73.80;;;;;;5053981;28;20491;-73
2023/05/04 11:18:27;;;;;;;1.27;1.08;;;21.90;47.70;;;;;;5054171;28;20027;-73
2023/05/04 11:20:54;;;;;;;2.28;1.10;;;22.20;61.80;;;;;;5054041;28;20100;-72
2023/05/04 11:23:21;;;;;;;2.00;1.40;;;22.00;73.60;;;;;;5053764;28;20060;-72
2023/05/04 11:25:47;;;;;;;1.95;1.15;;;22.00;78.50;;;;;;5054009;28;20025;-72
2023/05/04 11:28:13;;;;;;;2.08;1.20;;;22.40;78.60;;;;;;5053720;28;20040;-73
2023/05/04 11:30:40;;;;;;;1.35;1.00;;;22.70;78.80;;;;;;5053701;28;20033;-76
2023/05/04 11:33:15;;;;;;;2.65;1.00;;;22.50;47.80;;;;;;5053671;28;20384;-76
2023/05/04 11:35:42;;;;;;;1.73;1.10;;;22.60;78.80;;;;;;5053660;28;20029;-76
2023/05/04 11:38:08;;;;;;;1.30;1.13;;;22.80;62.50;;;;;;5053632;28;20021;-76
2023/05/04 11:40:35;;;;;;;1.55;1.10;;;22.50;68.60;;;;;;5053526;28;20079;-76
2023/05/04 11:43:02;;;;;;;2.53;1.25;;;22.70;79.10;;;;;;5053770;28;20032;-76
2023/05/04 11:45:30;;;;;;;2.55;1.30;;;22.70;47.80;;;;;;5053481;28;20024;-76
2023/05/04 11:47:56;;;;;;;1.55;1.23;;;23.10;48.10;;;;;;5053445;28;20017;-73
2023/05/04 11:50:23;;;;;;;1.13;1.02;;;23.10;69.70;;;;;;5052238;28;20068;-72
2023/05/04 11:52:49;;;;;;;3.03;1.83;;;23.00;78.80;;;;;;5053220;28;20111;-73
2023/05/04 11:55:26;;;;;;;1.60;1.35;;;23.20;79.00;;;;;;5053085;28;20167;-72
2023/05/04 11:58:03;;;;;;;1.40;1.30;;;23.50;46.90;;;;;;5053254;28;20044;-73
2023/05/04 12:00:40;;;;;;;1.55;1.08;;;22.80;78.70;;;;;;5053056;28;20187;-73
2023/05/04 12:03:22;;;;;;;3.05;1.27;;;23.60;57.90;;;;;;5053360;28;20093;-73
2023/05/04 12:05:51;;;;;;;1.70;1.05;;;23.30;47.90;;;;;;5053154;28;20040;-72
2023/05/04 12:08:32;;;;;;;2.75;0.82;;;23.50;78.60;;;;;;5053623;28;20083;-76
2023/05/04 12:11:19;;;;;;;0.73;0.73;;;23.00;78.50;;;;;;5053065;28;20431;-76
2023/05/04 12:13:46;;;;;;;1.65;1.00;;;23.90;79.10;;;;;;5052935;28;20546;-76
2023/05/04 12:16:12;;;;;;;1.75;0.80;;;;;;;;;;5052902;28;20033;-76
2023/05/04 12:18:38;;;;;;;1.63;1.23;;;23.60;47.40;;;;;;5052746;28;20399;-77
2023/05/04 12:21:16;;;;;;;1.05;0.95;;;21.90;45.70;;;;;;5052757;28;20163;-77
2023/05/04 12:23:42;;;;;;;2.05;1.10;;;23.50;48.70;;;;;;5052751;28;20067;-77
2023/05/04 12:26:08;;;;;;;1.52;1.15;;;23.90;50.80;;;;;;5051490;28;20475;-77
2023/05/04 12:28:35;;;;;;;1.88;1.30;;;24.00;72.60;;;;;;5052548;28;20146;-77
2023/05/04 12:31:01;;;;;;;1.30;1.10;;;24.00;78.50;;;;;;5052430;28;20029;-77
2023/05/04 12:33:26;;;;;;;0.80;0.80;;;24.20;78.60;;;;;;5052460;28;20033;-76
2023/05/04 12:35:52;;;;;;;2.53;1.02;;;24.10;78.80;;;;;;5052679;28;20017;-77
2023/05/04 12:38:20;;;;;;;1.08;0.95;;;23.50;73.00;;;;;;5052699;28;20021;-77
2023/05/04 12:40:46;;;;;;;1.73;1.10;;;;;;;;;;5052341;28;20551;-77
2023/05/04 12:43:12;;;;;;;2.92;1.98;;;;;;;;;;5052456;28;20067;-73
2023/05/04 12:45:38;;;;;;;1.92;1.23;;;24.50;58.50;;;;;;5052669;28;20355;-73
2023/05/04 12:48:04;;;;;;;2.97;1.50;;;24.40;78.50;;;;;;5052536;28;20027;-73
2023/05/04 12:50:30;;;;;;;2.40;1.40;;;23.90;78.50;;;;;;5052208;28;20540;-73
2023/05/04 12:52:56;;;;;;;1.95;1.55;;;24.00;77.90;;;;;;5052356;28;20025;-73
2023/05/04 12:55:22;;;;;;;2.10;1.40;;;24.10;78.20;;;;;;5051950;28;20037;-73
2023/05/04 12:57:48;;;;;;;1.83;1.73;;;24.30;78.30;;;;;;5052389;28;20108;-73
2023/05/04 13:00:15;;;;;;;1.65;1.50;;;23.90;78.20;;;;;;5052498;28;20164;-74
2023/05/04 13:02:41;;;;;;;1.83;1.55;;;24.00;78.60;;;;;;5050847;28;20036;-73
2023/05/04 13:05:07;;;;;;;1.70;1.08;;;24.50;78.90;;;;;;5052324;28;20025;-73
2023/05/04 13:07:33;;;;;;;2.75;1.63;;;24.30;78.40;;;;;;5052268;28;20032;-73
2023/05/04 13:10:00;;;;;;;1.67;1.10;;;24.30;46.80;;;;;;5052242;28;20031;-73
2023/05/04 13:12:27;;;;;;;1.42;1.10;;;24.00;78.10;;;;;;5051977;28;20041;-73
2023/05/04 13:14:55;;;;;;;1.65;1.30;;;24.10;78.10;;;;;;5051869;28;20448;-73
2023/05/04 13:17:21;;;;;;;3.25;1.13;;;24.20;78.10;;;;;;5051865;28;20558;-73
2023/05/04 13:19:47;;;;;;;2.08;1.40;;;24.40;78.10;;;;;;5052139;28;20112;-74
2023/05/04 13:22:14;;;;;;;1.77;1.40;;;;;;;;;;5052199;28;20072;-73
2023/05/04 13:24:40;;;;;;;1.65;1.55;;;24.70;67.40;;;;;;5052148;28;20025;-74
2023/05/04 13:27:06;;;;;;;2.30;1.50;;;24.50;69.80;;;;;;5052012;28;20035;-73